createdAt,value
2022-09-10T00:01:36.641Z,19.09
2022-09-10T00:04:10.532Z,19.14
2022-09-10T00:06:38.768Z,19.10
2022-09-10T00:09:09.157Z,19.28
2022-09-10T00:11:38.600Z,19.15
2022-09-10T00:14:08.973Z,19.17
2022-09-10T00:16:36.869Z,19.32
2022-09-10T00:19:06.581Z,19.18
2022-09-10T00:21:35.643Z,19.12
2022-09-10T00:24:05.516Z,18.95
2022-09-10T00:26:39.265Z,19.12
2022-09-10T00:29:10.792Z,19.12
2022-09-10T00:31:39.937Z,19.01
2022-09-10T00:34:09.104Z,18.93
2022-09-10T00:36:40.770Z,18.99
2022-09-10T00:39:11.132Z,18.91
2022-09-10T00:41:42.685Z,18.88
2022-09-10T00:44:58.447Z,18.83
2022-09-10T00:47:33.176Z,18.87
2022-09-10T00:50:13.680Z,18.64
2022-09-10T00:52:42.719Z,19.07
2022-09-10T00:55:12.651Z,19.25
2022-09-10T00:57:43.954Z,18.91
2022-09-10T01:00:15.989Z,19.11
2022-09-10T01:02:44.440Z,18.90
2022-09-10T01:05:12.962Z,18.96
2022-09-10T01:07:40.892Z,18.84
2022-09-10T01:10:18.006Z,18.76
2022-09-10T01:13:21.697Z,18.87
2022-09-10T01:16:03.201Z,18.76
2022-09-10T01:18:47.068Z,18.68
2022-09-10T01:21:30.984Z,18.86
2022-09-10T01:24:47.880Z,18.77
2022-09-10T01:27:45.267Z,18.77
2022-09-10T01:30:19.231Z,18.82
2022-09-10T01:33:04.573Z,18.65
2022-09-10T01:35:43.104Z,18.53
2022-09-10T01:38:21.542Z,18.58
2022-09-10T01:40:49.557Z,18.63
2022-09-10T01:43:18.701Z,18.70
2022-09-10T01:46:01.952Z,18.55
2022-09-10T01:49:14.594Z,18.52
2022-09-10T01:52:06.968Z,18.42
2022-09-10T01:55:03.196Z,18.41
2022-09-10T01:57:44.884Z,18.22
2022-09-10T02:00:18.729Z,18.10
2022-09-10T02:02:57.713Z,18.32
2022-09-10T02:05:28.787Z,18.51
2022-09-10T02:08:03.248Z,18.37
2022-09-10T02:10:31.683Z,18.43
2022-09-10T02:12:59.805Z,18.55
2022-09-10T02:15:32.517Z,18.55
2022-09-10T02:18:01.299Z,18.51
2022-09-10T02:20:31.221Z,18.15
2022-09-10T02:23:01.029Z,18.52
2022-09-10T02:25:36.464Z,18.38
2022-09-10T02:28:05.331Z,18.42
2022-09-10T02:30:34.522Z,18.34
2022-09-10T02:33:02.289Z,18.30
2022-09-10T02:35:31.120Z,18.52
2022-09-10T02:37:59.384Z,18.42
2022-09-10T02:40:31.777Z,18.40
2022-09-10T02:42:59.626Z,18.36
2022-09-10T02:45:27.918Z,18.30
2022-09-10T02:47:57.037Z,18.40
2022-09-10T02:50:25.146Z,18.59
2022-09-10T02:52:53.775Z,18.51
2022-09-10T02:55:21.559Z,18.64
2022-09-10T02:57:49.354Z,18.58
2022-09-10T03:00:17.280Z,18.68
2022-09-10T03:02:46.612Z,18.66
2022-09-10T03:05:16.004Z,18.55
2022-09-10T03:07:44.837Z,18.69
2022-09-10T03:10:12.729Z,18.59
2022-09-10T03:12:40.887Z,18.41
2022-09-10T03:15:10.604Z,18.59
2022-09-10T03:17:38.336Z,18.59
2022-09-10T03:20:08.389Z,18.47
2022-09-10T03:22:38.287Z,18.40
2022-09-10T03:25:08.042Z,18.35
2022-09-10T03:27:35.985Z,18.17
2022-09-10T03:30:04.010Z,18.18
2022-09-10T03:32:32.112Z,18.25
2022-09-10T03:35:00.297Z,18.25
2022-09-10T03:37:28.448Z,18.27
2022-09-10T03:39:57.986Z,18.35
2022-09-10T03:42:26.073Z,18.33
2022-09-10T03:44:54.065Z,18.27
2022-09-10T03:47:21.868Z,18.36
2022-09-10T03:49:50.706Z,18.26
2022-09-10T03:52:19.180Z,17.93
2022-09-10T03:54:46.923Z,18.05
2022-09-10T03:57:16.041Z,17.81
2022-09-10T03:59:43.806Z,17.95
2022-09-10T04:02:11.648Z,18.16
2022-09-10T04:04:39.493Z,17.93
2022-09-10T04:07:08.235Z,18.19
2022-09-10T04:09:36.010Z,18.14
2022-09-10T04:12:04.641Z,17.66
2022-09-10T04:14:34.352Z,17.60
2022-09-10T04:17:02.819Z,17.85
2022-09-10T04:19:30.630Z,18.10
2022-09-10T04:21:58.380Z,17.93
2022-09-10T04:24:26.166Z,17.98
2022-09-10T04:26:53.923Z,17.94
2022-09-10T04:29:23.002Z,18.18
2022-09-10T04:31:52.402Z,18.17
2022-09-10T04:34:20.216Z,18.15
2022-09-10T04:36:47.960Z,18.07
2022-09-10T04:39:15.735Z,18.18
2022-09-10T04:41:44.004Z,18.29
2022-09-10T04:44:11.795Z,18.15
2022-09-10T04:46:41.258Z,18.11
2022-09-10T04:49:11.019Z,17.92
2022-09-10T04:51:38.791Z,17.80
2022-09-10T04:54:06.743Z,17.83
2022-09-10T04:56:34.756Z,17.81
2022-09-10T04:59:02.533Z,17.63
2022-09-10T05:01:31.253Z,17.64
2022-09-10T05:03:59.053Z,17.66
2022-09-10T05:06:28.161Z,17.50
2022-09-10T05:08:56.099Z,17.64
2022-09-10T05:11:25.395Z,17.81
2022-09-10T05:13:53.371Z,18.07
2022-09-10T05:16:21.934Z,18.18
2022-09-10T05:18:49.763Z,17.89
2022-09-10T05:21:18.453Z,18.07
2022-09-10T05:23:47.912Z,18.00
2022-09-10T05:26:15.694Z,18.27
2022-09-10T05:28:43.586Z,18.05
2022-09-10T05:31:11.991Z,17.60
2022-09-10T05:33:40.739Z,17.22
2022-09-10T05:36:10.729Z,17.57
2022-09-10T05:38:40.081Z,17.87
2022-09-10T05:41:12.208Z,17.42
2022-09-10T05:43:41.911Z,18.06
2022-09-10T05:46:10.060Z,18.24
2022-09-10T05:48:41.576Z,18.10
2022-09-10T05:51:09.971Z,18.34
2022-09-10T05:53:38.228Z,18.22
2022-09-10T05:56:07.337Z,17.54
2022-09-10T05:58:36.495Z,18.12
2022-09-10T06:01:04.499Z,18.11
2022-09-10T06:03:32.328Z,18.57
2022-09-10T06:06:00.365Z,18.51
2022-09-10T06:08:28.124Z,18.53
2022-09-10T06:10:58.073Z,18.37
2022-09-10T06:13:26.243Z,18.85
2022-09-10T06:15:55.505Z,18.96
2022-09-10T06:18:23.289Z,19.12
2022-09-10T06:20:52.050Z,19.06
2022-09-10T06:23:19.911Z,18.93
2022-09-10T06:25:48.343Z,18.60
2022-09-10T06:28:16.113Z,19.21
2022-09-10T06:30:43.886Z,18.94
2022-09-10T06:33:13.230Z,19.02
2022-09-10T06:35:41.017Z,19.35
2022-09-10T06:38:08.785Z,18.94
2022-09-10T06:40:38.069Z,19.37
2022-09-10T06:43:06.052Z,19.48
2022-09-10T06:45:33.916Z,19.25
2022-09-10T06:50:56.801Z,19.56
2022-09-10T06:53:26.724Z,19.58
2022-09-10T06:55:55.961Z,19.38
2022-09-10T06:58:24.953Z,19.78
2022-09-10T07:00:53.086Z,19.85
2022-09-10T07:03:22.862Z,19.72
2022-09-10T07:05:53.372Z,19.88
2022-09-10T07:08:22.521Z,19.87
2022-09-10T07:10:50.402Z,19.84
2022-09-10T07:13:18.230Z,20.02
2022-09-10T07:15:47.047Z,19.93
2022-09-10T07:18:15.382Z,20.02
2022-09-10T07:20:44.286Z,20.20
2022-09-10T07:23:13.216Z,20.08
2022-09-10T07:25:43.236Z,20.17
2022-09-10T07:28:15.773Z,20.15
2022-09-10T07:30:44.878Z,20.00
2022-09-10T07:33:12.673Z,20.14
2022-09-10T07:35:40.965Z,20.23
2022-09-10T07:38:16.427Z,20.46
2022-09-10T07:40:45.516Z,20.22
2022-09-10T07:43:13.329Z,20.52
2022-09-10T07:45:41.568Z,20.46
2022-09-10T07:48:09.428Z,19.98
2022-09-10T07:50:37.268Z,20.39
2022-09-10T07:53:05.326Z,20.58
2022-09-10T07:55:33.093Z,20.52
2022-09-10T07:58:02.212Z,20.38
2022-09-10T08:00:30.927Z,20.29
2022-09-10T08:02:58.914Z,19.95
2022-09-10T08:05:28.807Z,20.57
2022-09-10T08:07:57.121Z,20.62
2022-09-10T08:10:24.912Z,20.34
2022-09-10T08:12:52.704Z,20.86
2022-09-10T08:15:23.315Z,20.96
2022-09-10T08:17:51.135Z,20.84
2022-09-10T08:20:19.160Z,20.98
2022-09-10T08:22:50.221Z,20.88
2022-09-10T08:25:20.937Z,20.37
2022-09-10T08:27:48.779Z,20.52
2022-09-10T08:30:16.884Z,20.15
2022-09-10T08:32:45.993Z,20.39
2022-09-10T08:35:14.541Z,20.70
2022-09-10T08:37:42.637Z,21.18
2022-09-10T08:40:13.336Z,21.21
2022-09-10T08:42:47.012Z,21.38
2022-09-10T08:45:19.750Z,21.22
2022-09-10T08:47:59.605Z,20.96
2022-09-10T08:50:42.433Z,20.77
2022-09-10T08:53:26.763Z,21.44
2022-09-10T08:55:59.926Z,21.66
2022-09-10T08:58:40.697Z,21.53
2022-09-10T09:01:15.909Z,21.50
2022-09-10T09:03:48.584Z,20.93
2022-09-10T09:06:30.183Z,21.16
2022-09-10T09:09:00.870Z,21.20
2022-09-10T09:11:42.149Z,21.48
2022-09-10T09:14:25.888Z,22.05
2022-09-10T09:17:17.734Z,22.09
2022-09-10T09:20:01.612Z,21.64
2022-09-10T09:22:45.758Z,21.48
2022-09-10T09:25:27.172Z,21.01
2022-09-10T09:27:57.142Z,21.33
2022-09-10T09:30:32.017Z,21.49
2022-09-10T09:33:12.223Z,21.55
2022-09-10T09:35:48.536Z,21.63
2022-09-10T09:38:23.722Z,21.23
2022-09-10T09:40:56.252Z,20.75
2022-09-10T09:43:38.478Z,21.44
2022-09-10T09:46:16.067Z,21.53
2022-09-10T09:48:45.046Z,22.17
2022-09-10T09:51:20.958Z,21.59
2022-09-10T09:54:01.031Z,21.47
2022-09-10T09:56:49.822Z,21.69
2022-09-10T09:59:29.159Z,22.14
2022-09-10T10:02:05.986Z,22.03
2022-09-10T10:04:36.220Z,22.07
2022-09-10T10:07:08.521Z,21.14
2022-09-10T10:09:43.557Z,20.87
2022-09-10T10:12:21.124Z,21.26
2022-09-10T10:14:49.861Z,21.74
2022-09-10T10:17:37.974Z,21.86
2022-09-10T10:20:13.483Z,21.93
2022-09-10T10:22:45.121Z,22.26
2022-09-10T10:25:38.189Z,21.86
2022-09-10T10:28:20.134Z,21.60
2022-09-10T10:30:54.457Z,22.05
2022-09-10T10:33:29.761Z,22.14
2022-09-10T10:36:14.709Z,22.55
2022-09-10T10:38:55.625Z,22.82
2022-09-10T10:42:00.271Z,22.20
2022-09-10T10:44:48.061Z,22.29
2022-09-10T10:47:33.990Z,22.52
2022-09-10T10:50:22.007Z,22.67
2022-09-10T10:53:12.375Z,22.95
2022-09-10T10:55:48.101Z,22.49
2022-09-10T10:58:39.025Z,21.83
2022-09-10T11:01:19.014Z,21.93
2022-09-10T11:04:00.589Z,22.27
2022-09-10T11:06:35.908Z,21.72
2022-09-10T11:09:13.556Z,22.26
2022-09-10T11:11:57.371Z,22.04
2022-09-10T11:14:36.831Z,22.55
2022-09-10T11:17:13.311Z,22.19
2022-09-10T11:20:00.546Z,22.43
2022-09-10T11:22:45.277Z,22.71
2022-09-10T11:25:26.292Z,22.95
2022-09-10T11:28:05.183Z,23.15
2022-09-10T11:30:35.806Z,22.91
2022-09-10T11:33:15.949Z,22.36
2022-09-10T11:35:52.125Z,22.58
2022-09-10T11:38:25.375Z,22.26
2022-09-10T11:41:07.672Z,22.60
2022-09-10T11:43:46.390Z,22.38
2022-09-10T11:46:21.230Z,22.77
2022-09-10T11:48:55.918Z,23.02
2022-09-10T11:51:30.518Z,22.55
2022-09-10T11:53:58.917Z,22.78
2022-09-10T11:56:52.871Z,22.82
2022-09-10T11:59:46.123Z,23.11
2022-09-10T12:03:02.648Z,22.52
2022-09-10T12:05:43.779Z,22.24
2022-09-10T12:08:29.608Z,22.70
2022-09-10T12:11:15.221Z,23.52
2022-09-10T12:13:47.191Z,23.09
2022-09-10T12:16:30.282Z,23.08
2022-09-10T12:19:02.972Z,22.73
2022-09-10T12:21:37.520Z,23.06
2022-09-10T12:24:26.658Z,22.90
2022-09-10T12:26:56.109Z,23.25
2022-09-10T12:29:33.181Z,22.88
2022-09-10T12:32:32.355Z,23.19
2022-09-10T12:35:46.763Z,23.26
2022-09-10T12:38:56.620Z,23.06
2022-09-10T12:41:57.889Z,23.30
2022-09-10T12:44:47.072Z,23.61
2022-09-10T12:47:41.078Z,23.50
2022-09-10T12:50:24.583Z,23.31
2022-09-10T12:53:34.367Z,24.05
2022-09-10T12:56:19.323Z,24.23
2022-09-10T12:59:08.190Z,23.95
2022-09-10T13:01:44.104Z,23.84
2022-09-10T13:04:29.394Z,23.02
2022-09-10T13:07:01.841Z,23.16
2022-09-10T13:09:34.494Z,23.27
2022-09-10T13:12:17.402Z,23.50
2022-09-10T13:14:50.735Z,23.53
2022-09-10T13:18:12.462Z,24.62
2022-09-10T13:20:41.580Z,24.42
2022-09-10T13:23:23.338Z,24.87
2022-09-10T13:25:52.802Z,24.58
2022-09-10T13:29:02.839Z,24.86
2022-09-10T13:31:35.802Z,24.09
2022-09-10T13:34:52.797Z,24.18
2022-09-10T13:37:47.605Z,24.36
2022-09-10T13:41:06.413Z,24.33
2022-09-10T13:44:07.907Z,24.51
2022-09-10T13:46:42.537Z,24.11
2022-09-10T13:49:19.111Z,23.78
2022-09-10T13:51:53.022Z,23.77
2022-09-10T13:54:35.512Z,23.02
2022-09-10T13:57:13.196Z,22.64
2022-09-10T13:59:43.768Z,22.62
2022-09-10T14:02:11.571Z,22.32
2022-09-10T14:04:44.968Z,22.85
2022-09-10T14:07:20.270Z,22.45
2022-09-10T14:09:56.721Z,22.44
2022-09-10T14:12:29.488Z,22.53
2022-09-10T14:15:04.452Z,22.51
2022-09-10T14:17:41.357Z,22.17
2022-09-10T14:20:24.274Z,22.55
2022-09-10T14:23:00.149Z,22.87
2022-09-10T14:25:33.682Z,22.59
2022-09-10T14:28:28.916Z,22.15
2022-09-10T14:31:29.889Z,22.26
2022-09-10T14:34:00.168Z,23.05
2022-09-10T14:36:35.360Z,23.01
2022-09-10T14:39:07.866Z,22.30
2022-09-10T14:41:37.770Z,23.15
2022-09-10T14:44:30.453Z,23.16
2022-09-10T14:47:00.944Z,23.36
2022-09-10T14:49:32.457Z,23.16
2022-09-10T14:52:01.986Z,23.31
2022-09-10T14:54:32.692Z,23.08
2022-09-10T14:57:06.558Z,22.73
2022-09-10T14:59:38.575Z,23.20
2022-09-10T15:02:17.089Z,23.76
2022-09-10T15:04:45.113Z,23.36
2022-09-10T15:07:13.804Z,23.48
2022-09-10T15:09:42.139Z,23.26
2022-09-10T15:12:25.728Z,23.71
2022-09-10T15:14:53.688Z,23.63
2022-09-10T15:17:21.912Z,23.84
2022-09-10T15:19:49.884Z,23.12
2022-09-10T15:22:23.330Z,22.95
2022-09-10T15:25:09.989Z,22.87
2022-09-10T15:27:39.629Z,22.78
2022-09-10T15:30:08.932Z,22.94
2022-09-10T15:32:36.720Z,23.10
2022-09-10T15:35:05.682Z,22.54
2022-09-10T15:37:33.662Z,22.08
2022-09-10T15:40:01.524Z,22.24
2022-09-10T15:42:29.409Z,22.87
2022-09-10T15:44:58.574Z,22.45
2022-09-10T15:47:27.029Z,23.07
2022-09-10T15:49:54.889Z,23.13
2022-09-10T15:52:22.675Z,22.60
2022-09-10T15:54:50.531Z,23.01
2022-09-10T15:57:18.388Z,23.15
2022-09-10T15:59:47.162Z,23.09
2022-09-10T16:02:16.512Z,22.84
2022-09-10T16:04:44.329Z,22.63
2022-09-10T16:07:13.744Z,22.81
2022-09-10T16:09:42.387Z,22.75
2022-09-10T16:12:10.209Z,22.45
2022-09-10T16:14:38.198Z,22.98
2022-09-10T16:17:10.520Z,23.25
2022-09-10T16:19:39.798Z,22.88
2022-09-10T16:22:08.094Z,22.75
2022-09-10T16:24:36.015Z,23.35
2022-09-10T16:27:03.999Z,22.75
2022-09-10T16:29:32.592Z,22.88
2022-09-10T16:32:00.709Z,22.50
2022-09-10T16:34:28.824Z,22.85
2022-09-10T16:36:57.998Z,22.70
2022-09-10T16:39:26.068Z,22.86
2022-09-10T16:41:56.508Z,22.75
2022-09-10T16:44:24.726Z,23.06
2022-09-10T16:46:52.551Z,22.56
2022-09-10T16:49:20.575Z,22.82
2022-09-10T16:51:49.966Z,22.68
2022-09-10T16:54:21.084Z,22.30
2022-09-10T16:56:50.212Z,22.58
2022-09-10T16:59:21.383Z,22.54
2022-09-10T17:01:51.799Z,22.74
2022-09-10T17:04:28.358Z,22.32
2022-09-10T17:06:58.029Z,22.67
2022-09-10T17:09:27.568Z,22.01
2022-09-10T17:11:55.901Z,22.41
2022-09-10T17:14:24.460Z,21.82
2022-09-10T17:16:53.166Z,22.26
2022-09-10T17:19:23.984Z,22.10
2022-09-10T17:21:55.278Z,22.05
2022-09-10T17:24:26.501Z,21.96
2022-09-10T17:26:56.210Z,22.21
2022-09-10T17:29:26.709Z,22.03
2022-09-10T17:31:57.298Z,21.69
2022-09-10T17:34:28.228Z,21.55
2022-09-10T17:36:56.163Z,21.18
2022-09-10T17:39:28.096Z,21.11
2022-09-10T17:41:58.026Z,21.35
2022-09-10T17:44:26.915Z,21.56
2022-09-10T17:46:56.993Z,21.75
2022-09-10T17:49:25.389Z,21.32
2022-09-10T17:51:54.141Z,21.21
2022-09-10T17:54:23.515Z,21.97
2022-09-10T17:56:51.787Z,21.98
2022-09-10T17:59:21.922Z,22.02
2022-09-10T18:01:49.707Z,21.78
2022-09-10T18:04:19.468Z,21.68
2022-09-10T18:06:52.022Z,21.91
2022-09-10T18:09:23.592Z,22.12
2022-09-10T18:11:51.373Z,22.09
2022-09-10T18:14:21.881Z,21.54
2022-09-10T18:16:51.361Z,21.49
2022-09-10T18:19:19.910Z,21.45
2022-09-10T18:21:49.342Z,21.59
2022-09-10T18:24:22.399Z,21.80
2022-09-10T18:26:53.230Z,21.89
2022-09-10T18:29:25.537Z,21.86
2022-09-10T18:31:56.876Z,21.94
2022-09-10T18:34:27.593Z,21.88
2022-09-10T18:37:00.932Z,21.70
2022-09-10T18:39:31.598Z,22.03
2022-09-10T18:42:00.922Z,22.08
2022-09-10T18:44:34.129Z,21.88
2022-09-10T18:47:02.254Z,21.77
2022-09-10T18:49:30.234Z,21.69
2022-09-10T18:51:58.527Z,21.65
2022-09-10T18:54:29.070Z,21.53
2022-09-10T18:56:58.185Z,21.50
2022-09-10T18:59:27.370Z,21.73
2022-09-10T19:01:56.879Z,21.79
2022-09-10T19:04:28.009Z,21.57
2022-09-10T19:06:57.274Z,21.83
2022-09-10T19:09:26.960Z,21.79
2022-09-10T19:11:57.591Z,21.78
2022-09-10T19:14:29.244Z,21.75
2022-09-10T19:17:00.501Z,21.67
2022-09-10T19:19:31.896Z,21.57
2022-09-10T19:22:04.593Z,21.48
2022-09-10T19:24:53.305Z,21.53
2022-09-10T19:27:21.134Z,21.57
2022-09-10T19:29:49.782Z,21.41
2022-09-10T19:32:19.742Z,21.49
2022-09-10T19:34:50.925Z,21.62
2022-09-10T19:37:19.594Z,21.59
2022-09-10T19:39:47.720Z,21.40
2022-09-10T19:42:16.459Z,21.43
2022-09-10T19:44:44.608Z,21.49
2022-09-10T19:47:12.691Z,21.60
2022-09-10T19:49:41.791Z,21.40
2022-09-10T19:52:11.044Z,20.89
2022-09-10T19:54:38.986Z,20.71
2022-09-10T19:57:06.798Z,21.02
2022-09-10T19:59:35.539Z,21.14
2022-09-10T20:02:03.432Z,20.78
2022-09-10T20:04:31.376Z,21.05
2022-09-10T20:07:01.263Z,21.27
2022-09-10T20:09:29.096Z,21.23
2022-09-10T20:11:59.007Z,21.19
2022-09-10T20:14:26.887Z,21.27
2022-09-10T20:16:57.764Z,21.12
2022-09-10T20:19:29.039Z,20.99
2022-09-10T20:21:56.925Z,20.88
2022-09-10T20:24:28.450Z,21.02
2022-09-10T20:26:57.163Z,20.97
2022-09-10T20:29:25.555Z,20.90
2022-09-10T20:31:55.976Z,20.76
2022-09-10T20:34:26.635Z,20.80
2022-09-10T20:36:54.485Z,20.63
2022-09-10T20:39:25.848Z,20.87
2022-09-10T20:41:55.815Z,20.82
2022-09-10T20:44:23.826Z,20.88
2022-09-10T20:46:51.741Z,20.88
2022-09-10T20:49:19.685Z,20.83
2022-09-10T20:51:48.334Z,20.52
2022-09-10T20:54:19.871Z,20.31
2022-09-10T20:56:49.715Z,20.36
2022-09-10T20:59:19.178Z,20.49
2022-09-10T21:01:51.371Z,20.53
2022-09-10T21:04:19.916Z,20.16
2022-09-10T21:06:47.856Z,20.41
2022-09-10T21:09:15.849Z,20.49
2022-09-10T21:11:43.641Z,20.69
2022-09-10T21:14:14.336Z,20.63
2022-09-10T21:16:45.847Z,20.58
2022-09-10T21:19:16.292Z,20.78
2022-09-10T21:21:48.666Z,20.76
2022-09-10T21:24:19.550Z,20.67
2022-09-10T21:26:47.441Z,20.51
2022-09-10T21:29:20.313Z,20.52
2022-09-10T21:31:50.540Z,20.69
2022-09-10T21:34:19.284Z,20.72
2022-09-10T21:36:47.315Z,20.58
2022-09-10T21:39:17.473Z,20.56
2022-09-10T21:41:47.995Z,20.51
2022-09-10T21:44:19.797Z,20.36
2022-09-10T21:46:49.565Z,20.13
2022-09-10T21:49:18.389Z,20.22
2022-09-10T21:51:46.701Z,20.36
2022-09-10T21:54:18.716Z,20.36
2022-09-10T21:56:48.938Z,20.21
2022-09-10T21:59:18.758Z,20.20
2022-09-10T22:01:47.628Z,20.18
2022-09-10T22:04:21.504Z,20.13
2022-09-10T22:06:51.056Z,19.96
2022-09-10T22:09:19.827Z,19.89
2022-09-10T22:11:52.029Z,20.00
2022-09-10T22:14:24.138Z,20.05
2022-09-10T22:16:53.322Z,19.73
2022-09-10T22:19:24.502Z,20.12
2022-09-10T22:21:54.138Z,20.15
2022-09-10T22:24:22.304Z,20.28
2022-09-10T22:26:50.311Z,20.36
2022-09-10T22:29:21.571Z,20.30
2022-09-10T22:31:50.087Z,20.23
2022-09-10T22:34:19.639Z,20.23
2022-09-10T22:36:49.461Z,20.24
2022-09-10T22:39:20.819Z,20.13
2022-09-10T22:41:50.467Z,20.09
2022-09-10T22:44:19.850Z,19.80
2022-09-10T22:46:49.089Z,19.97
2022-09-10T22:49:17.920Z,19.37
2022-09-10T22:51:46.200Z,19.59
2022-09-10T22:54:14.510Z,19.25
2022-09-10T22:56:43.103Z,18.94
2022-09-10T22:59:14.633Z,19.16
2022-09-10T23:01:47.406Z,19.36
2022-09-10T23:04:17.276Z,18.81
2022-09-10T23:06:45.391Z,18.76
2022-09-10T23:09:16.359Z,18.64
2022-09-10T23:11:45.503Z,18.66
2022-09-10T23:14:17.833Z,18.94
2022-09-10T23:16:48.670Z,19.03
2022-09-10T23:19:21.502Z,18.62
2022-09-10T23:21:52.158Z,18.86
2022-09-10T23:24:24.119Z,18.81
2022-09-10T23:26:52.314Z,19.01
2022-09-10T23:29:20.538Z,19.07
2022-09-10T23:31:49.826Z,19.33
2022-09-10T23:34:21.049Z,19.44
2022-09-10T23:36:50.701Z,19.43
2022-09-10T23:39:21.194Z,19.39
2022-09-10T23:41:49.541Z,19.46
2022-09-10T23:44:18.165Z,19.01
2022-09-10T23:46:46.229Z,18.57
2022-09-10T23:49:14.186Z,18.49
2022-09-10T23:51:43.883Z,18.59
2022-09-10T23:54:12.761Z,18.61
2022-09-10T23:56:40.951Z,18.83
2022-09-10T23:59:09.514Z,18.68
